sensor_id;sensor_type;location;lat;lon;timestamp;P1;durP1;ratioP1;P2;durP2;ratioP2
12459;SDS011;6295;49.452;8.466;2022-11-15T08:14:51;4.43;;;4.03;;
12459;SDS011;6295;49.452;8.466;2022-11-15T08:18:54;4.37;;;3.93;;
12459;SDS011;6295;49.452;8.466;2022-11-15T08:22:56;4.97;;;4.10;;
12459;SDS011;6295;49.452;8.466;2022-11-15T08:26:58;5.23;;;4.00;;
12459;SDS011;6295;49.452;8.466;2022-11-15T08:31:03;5.43;;;4.20;;
12459;SDS011;6295;49.452;8.466;2022-11-15T08:35:07;4.57;;;4.03;;
12459;SDS011;6295;49.452;8.466;2022-11-15T08:39:10;4.87;;;4.37;;
12459;SDS011;6295;49.452;8.466;2022-11-15T08:43:12;6.37;;;4.33;;
12459;SDS011;6295;49.452;8.466;2022-11-15T08:47:16;4.20;;;3.80;;
12459;SDS011;6295;49.452;8.466;2022-11-15T08:51:18;4.27;;;3.87;;
12459;SDS011;6295;49.452;8.466;2022-11-15T08:55:20;4.87;;;4.27;;
12459;SDS011;6295;49.452;8.466;2022-11-15T08:59:23;4.37;;;3.90;;
12459;SDS011;6295;49.452;8.466;2022-11-15T09:03:28;4.33;;;3.83;;
12459;SDS011;6295;49.452;8.466;2022-11-15T09:07:31;4.63;;;4.00;;
12459;SDS011;6295;49.452;8.466;2022-11-15T09:11:35;4.90;;;4.40;;
12459;SDS011;6295;49.452;8.466;2022-11-15T09:15:37;5.00;;;4.10;;
12459;SDS011;6295;49.452;8.466;2022-11-15T09:19:41;5.13;;;3.80;;
12459;SDS011;6295;49.452;8.466;2022-11-15T09:23:43;5.07;;;4.00;;
12459;SDS011;6295;49.452;8.466;2022-11-15T09:27:45;5.27;;;4.03;;
12459;SDS011;6295;49.452;8.466;2022-11-15T09:31:47;7.03;;;3.90;;
12459;SDS011;6295;49.452;8.466;2022-11-15T09:35:51;4.43;;;3.90;;
12459;SDS011;6295;49.452;8.466;2022-11-15T09:39:54;4.50;;;3.70;;
12459;SDS011;6295;49.452;8.466;2022-11-15T09:44:01;4.57;;;3.73;;
12459;SDS011;6295;49.452;8.466;2022-11-15T09:48:32;6.13;;;4.00;;
12459;SDS011;6295;49.452;8.466;2022-11-15T09:53:00;4.50;;;4.10;;
12459;SDS011;6295;49.452;8.466;2022-11-15T09:57:04;5.07;;;4.33;;
12459;SDS011;6295;49.452;8.466;2022-11-15T10:01:11;6.13;;;4.77;;
12459;SDS011;6295;49.452;8.466;2022-11-15T10:05:19;4.50;;;3.87;;
12459;SDS011;6295;49.452;8.466;2022-11-15T10:09:25;4.53;;;4.10;;
12459;SDS011;6295;49.452;8.466;2022-11-15T10:13:32;4.70;;;4.00;;
12459;SDS011;6295;49.452;8.466;2022-11-15T10:17:45;4.20;;;3.67;;
12459;SDS011;6295;49.452;8.466;2022-11-15T10:21:55;5.03;;;3.80;;
12459;SDS011;6295;49.452;8.466;2022-11-15T10:26:09;4.67;;;3.50;;
12459;SDS011;6295;49.452;8.466;2022-11-15T10:30:17;6.00;;;4.00;;
12459;SDS011;6295;49.452;8.466;2022-11-15T10:34:20;4.50;;;4.10;;
12459;SDS011;6295;49.452;8.466;2022-11-15T10:38:24;4.43;;;3.93;;
12459;SDS011;6295;49.452;8.466;2022-11-15T10:42:28;5.23;;;3.90;;
12459;SDS011;6295;49.452;8.466;2022-11-15T10:46:31;5.00;;;3.87;;
12459;SDS011;6295;49.452;8.466;2022-11-15T10:50:34;4.23;;;3.83;;
12459;SDS011;6295;49.452;8.466;2022-11-15T10:54:39;4.17;;;3.77;;
12459;SDS011;6295;49.452;8.466;2022-11-15T10:58:49;4.70;;;3.57;;
12459;SDS011;6295;49.452;8.466;2022-11-15T11:02:58;4.90;;;4.20;;
12459;SDS011;6295;49.452;8.466;2022-11-15T11:07:08;7.10;;;4.10;;
12459;SDS011;6295;49.452;8.466;2022-11-15T11:11:23;4.40;;;3.83;;
12459;SDS011;6295;49.452;8.466;2022-11-15T11:15:27;4.57;;;4.07;;
12459;SDS011;6295;49.452;8.466;2022-11-15T11:23:58;4.93;;;4.17;;
12459;SDS011;6295;49.452;8.466;2022-11-15T11:28:12;7.03;;;4.10;;
12459;SDS011;6295;49.452;8.466;2022-11-15T11:32:28;4.50;;;3.80;;
12459;SDS011;6295;49.452;8.466;2022-11-15T11:36:42;5.73;;;3.87;;
12459;SDS011;6295;49.452;8.466;2022-11-15T11:40:56;3.70;;;3.37;;
12459;SDS011;6295;49.452;8.466;2022-11-15T11:45:03;4.43;;;3.80;;
12459;SDS011;6295;49.452;8.466;2022-11-15T11:49:18;3.73;;;3.23;;
12459;SDS011;6295;49.452;8.466;2022-11-15T11:53:27;3.37;;;3.07;;
12459;SDS011;6295;49.452;8.466;2022-11-15T11:57:33;4.30;;;3.43;;
12459;SDS011;6295;49.452;8.466;2022-11-15T12:01:41;2.90;;;2.60;;
12459;SDS011;6295;49.452;8.466;2022-11-15T12:05:48;3.23;;;2.93;;
12459;SDS011;6295;49.452;8.466;2022-11-15T12:09:58;2.97;;;2.63;;
12459;SDS011;6295;49.452;8.466;2022-11-15T12:14:05;3.00;;;2.70;;
12459;SDS011;6295;49.452;8.466;2022-11-15T12:18:26;3.37;;;2.83;;
12459;SDS011;6295;49.452;8.466;2022-11-15T12:22:35;2.80;;;2.37;;
12459;SDS011;6295;49.452;8.466;2022-11-15T12:26:44;4.20;;;2.63;;
12459;SDS011;6295;49.452;8.466;2022-11-15T12:30:49;3.07;;;2.73;;
12459;SDS011;6295;49.452;8.466;2022-11-15T12:34:53;3.00;;;2.17;;
12459;SDS011;6295;49.452;8.466;2022-11-15T12:38:58;2.83;;;2.47;;
12459;SDS011;6295;49.452;8.466;2022-11-15T12:43:04;2.83;;;2.10;;
12459;SDS011;6295;49.452;8.466;2022-11-15T12:47:22;2.57;;;2.37;;
12459;SDS011;6295;49.452;8.466;2022-11-15T12:56:16;3.77;;;2.40;;
12459;SDS011;6295;49.452;8.466;2022-11-15T13:04:47;2.60;;;2.40;;
12459;SDS011;6295;49.452;8.466;2022-11-15T13:08:49;2.70;;;2.47;;
12459;SDS011;6295;49.452;8.466;2022-11-15T13:12:54;3.53;;;2.60;;
12459;SDS011;6295;49.452;8.466;2022-11-15T13:16:58;2.77;;;2.40;;
12459;SDS011;6295;49.452;8.466;2022-11-15T13:21:01;3.40;;;2.53;;
12459;SDS011;6295;49.452;8.466;2022-11-15T13:25:46;2.90;;;2.53;;
12459;SDS011;6295;49.452;8.466;2022-11-15T13:29:58;3.37;;;2.77;;
12459;SDS011;6295;49.452;8.466;2022-11-15T13:34:26;4.03;;;3.00;;
12459;SDS011;6295;49.452;8.466;2022-11-15T13:38:34;2.90;;;2.60;;
12459;SDS011;6295;49.452;8.466;2022-11-15T13:42:38;3.30;;;2.50;;
12459;SDS011;6295;49.452;8.466;2022-11-15T13:46:42;3.60;;;2.83;;
12459;SDS011;6295;49.452;8.466;2022-11-15T13:50:46;4.07;;;2.77;;
12459;SDS011;6295;49.452;8.466;2022-11-15T13:54:50;2.83;;;2.60;;
